createdAt,value
2022-10-12T00:02:03.829Z,8.90
2022-10-12T00:04:31.921Z,8.90
2022-10-12T00:06:59.883Z,8.80
2022-10-12T00:09:27.740Z,8.80
2022-10-12T00:11:55.637Z,8.80
2022-10-12T00:14:23.498Z,8.80
2022-10-12T00:16:52.744Z,8.80
2022-10-12T00:19:20.628Z,8.70
2022-10-12T00:21:48.480Z,8.70
2022-10-12T00:24:16.320Z,8.70
2022-10-12T00:26:44.145Z,8.80
2022-10-12T00:29:12.032Z,8.80
2022-10-12T00:31:50.715Z,8.80
2022-10-12T00:34:20.182Z,8.80
2022-10-12T00:36:48.123Z,8.80
2022-10-12T00:39:16.042Z,8.70
2022-10-12T00:41:45.039Z,8.70
2022-10-12T00:44:35.707Z,8.70
2022-10-12T00:47:08.207Z,8.70
2022-10-12T00:49:38.274Z,8.60
2022-10-12T00:52:10.766Z,8.70
2022-10-12T00:54:42.248Z,8.60
2022-10-12T00:57:12.184Z,8.60
2022-10-12T00:59:45.542Z,8.60
2022-10-12T01:02:14.148Z,8.60
2022-10-12T01:04:44.416Z,8.60
2022-10-12T01:07:12.682Z,8.60
2022-10-12T01:09:40.755Z,8.60
2022-10-12T01:12:09.398Z,8.60
2022-10-12T01:14:37.796Z,8.60
2022-10-12T01:17:19.118Z,8.60
2022-10-12T01:20:21.818Z,8.60
2022-10-12T01:23:05.317Z,8.60
2022-10-12T01:25:51.881Z,8.60
2022-10-12T01:28:24.551Z,8.60
2022-10-12T01:31:00.273Z,8.60
2022-10-12T01:33:33.523Z,8.60
2022-10-12T01:36:08.588Z,8.50
2022-10-12T01:38:45.489Z,8.40
2022-10-12T01:41:19.537Z,8.40
2022-10-12T01:43:47.937Z,8.40
2022-10-12T01:46:42.154Z,8.40
2022-10-12T01:49:11.320Z,8.40
2022-10-12T01:51:54.615Z,8.50
2022-10-12T01:54:35.115Z,8.50
2022-10-12T01:57:13.053Z,8.50
2022-10-12T01:59:50.813Z,8.40
2022-10-12T02:02:27.148Z,8.50
2022-10-12T02:05:02.857Z,8.50
2022-10-12T02:07:41.273Z,8.50
2022-10-12T02:10:14.333Z,8.50
2022-10-12T02:12:43.726Z,8.50
2022-10-12T02:15:14.055Z,8.40
2022-10-12T02:17:47.354Z,8.50
2022-10-12T02:20:18.296Z,8.50
2022-10-12T02:22:49.798Z,8.50
2022-10-12T02:25:21.623Z,8.60
2022-10-12T02:27:54.325Z,8.60
2022-10-12T02:30:22.896Z,8.60
2022-10-12T02:32:58.881Z,8.60
2022-10-12T02:35:36.566Z,8.60
2022-10-12T02:38:10.533Z,8.60
2022-10-12T02:40:42.413Z,8.60
2022-10-12T02:43:15.605Z,8.60
2022-10-12T02:45:45.874Z,8.50
2022-10-12T02:48:20.310Z,8.50
2022-10-12T02:50:50.128Z,8.50
2022-10-12T02:53:18.743Z,8.40
2022-10-12T02:55:50.767Z,8.40
2022-10-12T02:58:18.911Z,8.40
2022-10-12T03:00:47.063Z,8.40
2022-10-12T03:03:16.374Z,8.40
2022-10-12T03:05:44.484Z,8.40
2022-10-12T03:08:12.464Z,8.40
2022-10-12T03:10:40.353Z,8.40
2022-10-12T03:13:11.115Z,8.40
2022-10-12T03:15:38.969Z,8.40
2022-10-12T03:18:06.900Z,8.40
2022-10-12T03:20:36.097Z,8.40
2022-10-12T03:23:04.913Z,8.40
2022-10-12T03:25:33.204Z,8.40
2022-10-12T03:28:19.476Z,8.40
2022-10-12T03:30:47.575Z,8.40
2022-10-12T03:33:15.471Z,8.40
2022-10-12T03:35:46.228Z,8.40
2022-10-12T03:38:23.976Z,8.30
2022-10-12T03:40:52.202Z,8.30
2022-10-12T03:43:21.586Z,8.30
2022-10-12T03:45:49.706Z,8.20
2022-10-12T03:48:26.610Z,8.20
2022-10-12T03:50:55.834Z,8.20
2022-10-12T03:53:23.693Z,8.20
2022-10-12T03:55:51.834Z,8.10
2022-10-12T03:58:19.740Z,8.10
2022-10-12T04:00:47.853Z,8.10
2022-10-12T04:03:15.756Z,8.10
2022-10-12T04:05:44.781Z,8.00
2022-10-12T04:08:13.962Z,8.00
2022-10-12T04:10:41.782Z,8.00
2022-10-12T04:13:09.998Z,8.00
2022-10-12T04:15:38.221Z,8.00
2022-10-12T04:18:06.414Z,8.00
2022-10-12T04:20:34.732Z,7.90
2022-10-12T04:23:02.553Z,7.90
2022-10-12T04:25:31.802Z,7.90
2022-10-12T04:27:59.733Z,7.90
2022-10-12T04:30:27.648Z,7.90
2022-10-12T04:32:56.209Z,7.80
2022-10-12T04:35:24.088Z,7.80
2022-10-12T04:37:51.999Z,7.80
2022-10-12T04:40:19.871Z,7.80
2022-10-12T04:42:49.240Z,7.80
2022-10-12T04:45:17.384Z,7.80
2022-10-12T04:47:45.297Z,7.80
2022-10-12T04:50:13.196Z,7.80
2022-10-12T04:52:41.107Z,7.70
2022-10-12T04:55:09.917Z,7.70
2022-10-12T04:57:38.558Z,7.70
2022-10-12T05:00:09.775Z,7.70
2022-10-12T05:02:37.654Z,7.70
2022-10-12T05:05:06.143Z,7.70
2022-10-12T05:07:34.262Z,7.70
2022-10-12T05:10:02.121Z,7.70
2022-10-12T05:12:29.962Z,7.70
2022-10-12T05:14:58.198Z,7.70
2022-10-12T05:17:32.532Z,7.70
2022-10-12T05:20:00.552Z,7.70
2022-10-12T05:22:28.460Z,7.70
2022-10-12T05:25:01.104Z,7.70
2022-10-12T05:27:33.388Z,7.70
2022-10-12T05:30:04.253Z,7.70
2022-10-12T05:32:33.484Z,7.70
2022-10-12T05:35:01.380Z,7.70
2022-10-12T05:37:29.479Z,7.70
2022-10-12T05:39:57.350Z,7.80
2022-10-12T05:42:25.319Z,7.80
2022-10-12T05:44:55.463Z,7.80
2022-10-12T05:47:23.313Z,7.80
2022-10-12T05:49:56.343Z,7.80
2022-10-12T05:52:25.635Z,7.80
2022-10-12T05:54:53.565Z,7.80
2022-10-12T06:00:51.187Z,7.70
2022-10-12T06:03:20.404Z,7.70
2022-10-12T06:05:51.176Z,7.80
2022-10-12T06:08:19.040Z,7.80
2022-10-12T06:10:48.580Z,7.90
2022-10-12T06:13:17.842Z,7.90
2022-10-12T06:15:46.148Z,7.90
2022-10-12T06:18:14.569Z,7.90
2022-10-12T06:20:42.735Z,7.90
2022-10-12T06:23:11.911Z,7.90
2022-10-12T06:25:39.878Z,7.90
2022-10-12T06:28:07.895Z,7.90
2022-10-12T06:30:35.731Z,7.90
2022-10-12T06:33:03.590Z,7.90
2022-10-12T06:35:32.167Z,7.90
2022-10-12T06:38:00.062Z,7.90
2022-10-12T06:40:29.560Z,7.90
2022-10-12T06:43:02.499Z,7.90
2022-10-12T06:45:30.653Z,7.90
2022-10-12T06:47:59.008Z,7.90
2022-10-12T06:50:27.459Z,7.80
2022-10-12T06:52:55.903Z,7.80
2022-10-12T06:55:23.925Z,7.80
2022-10-12T06:57:53.133Z,7.80
2022-10-12T07:00:21.254Z,7.70
2022-10-12T07:02:50.638Z,7.80
2022-10-12T07:05:19.186Z,7.80
2022-10-12T07:07:58.725Z,7.70
2022-10-12T07:10:29.522Z,7.80
2022-10-12T07:12:58.722Z,7.80
2022-10-12T07:15:29.065Z,7.80
2022-10-12T07:17:59.299Z,7.80
2022-10-12T07:20:29.296Z,7.90
2022-10-12T07:22:57.533Z,7.80
2022-10-12T07:25:42.647Z,7.90
2022-10-12T07:28:23.575Z,7.90
2022-10-12T07:30:51.820Z,8.00
2022-10-12T07:33:20.347Z,8.10
2022-10-12T07:36:21.962Z,8.20
2022-10-12T07:38:57.867Z,8.30
2022-10-12T07:41:30.132Z,8.40
2022-10-12T07:44:03.229Z,8.50
2022-10-12T07:46:32.008Z,8.60
2022-10-12T07:49:14.261Z,8.70
2022-10-12T07:51:46.490Z,8.90
2022-10-12T07:54:20.975Z,9.00
2022-10-12T07:56:50.697Z,9.10
2022-10-12T07:59:20.459Z,9.20
2022-10-12T08:02:04.657Z,9.40
2022-10-12T08:04:36.074Z,9.40
2022-10-12T08:07:06.234Z,9.60
2022-10-12T08:09:43.873Z,9.70
2022-10-12T08:12:18.803Z,9.70
2022-10-12T08:14:48.026Z,9.80
2022-10-12T08:17:19.650Z,9.80
2022-10-12T08:19:48.893Z,9.80
2022-10-12T08:22:16.865Z,9.80
2022-10-12T08:24:44.919Z,9.90
2022-10-12T08:27:17.844Z,9.80
2022-10-12T08:29:51.543Z,9.80
2022-10-12T08:35:19.578Z,9.80
2022-10-12T08:37:47.493Z,9.70
2022-10-12T08:40:24.606Z,9.80
2022-10-12T08:43:00.277Z,9.80
2022-10-12T08:45:44.663Z,9.80
2022-10-12T08:48:21.609Z,9.90
2022-10-12T08:50:54.417Z,10.00
2022-10-12T08:53:30.120Z,10.00
2022-10-12T08:56:06.523Z,10.10
2022-10-12T08:58:40.943Z,10.10
2022-10-12T09:01:20.651Z,10.20
2022-10-12T09:03:58.408Z,10.20
2022-10-12T09:06:33.280Z,10.20
2022-10-12T09:09:33.031Z,10.20
2022-10-12T09:12:19.577Z,10.20
2022-10-12T09:15:03.976Z,10.30
2022-10-12T09:17:58.590Z,10.30
2022-10-12T09:20:33.320Z,10.40
2022-10-12T09:23:07.635Z,10.50
2022-10-12T09:25:35.575Z,10.50
2022-10-12T09:28:15.193Z,10.60
2022-10-12T09:31:03.790Z,10.60
2022-10-12T09:33:45.348Z,10.70
2022-10-12T09:36:30.855Z,10.70
2022-10-12T09:39:15.484Z,10.80
2022-10-12T09:41:46.527Z,10.90
2022-10-12T09:44:21.230Z,11.00
2022-10-12T09:51:16.219Z,11.10
2022-10-12T09:54:22.899Z,11.20
2022-10-12T09:56:52.445Z,11.30
2022-10-12T09:59:27.591Z,11.40
2022-10-12T10:02:00.394Z,11.50
2022-10-12T10:04:29.789Z,11.50
2022-10-12T10:07:14.227Z,11.60
2022-10-12T10:09:44.149Z,11.70
2022-10-12T10:12:31.893Z,11.80
2022-10-12T10:15:09.163Z,11.90
2022-10-12T10:17:41.620Z,11.90
2022-10-12T10:20:27.928Z,12.00
2022-10-12T10:23:24.823Z,12.10
2022-10-12T10:26:15.824Z,12.10
2022-10-12T10:28:44.889Z,12.20
2022-10-12T10:31:23.723Z,12.20
2022-10-12T10:34:20.401Z,12.30
2022-10-12T10:36:51.301Z,12.30
2022-10-12T10:39:22.336Z,12.30
2022-10-12T10:41:53.278Z,12.40
2022-10-12T10:44:28.299Z,12.40
2022-10-12T10:46:59.017Z,12.50
2022-10-12T10:49:35.010Z,12.60
2022-10-12T10:52:04.196Z,12.60
2022-10-12T10:54:34.499Z,12.70
2022-10-12T10:57:06.991Z,12.70
2022-10-12T10:59:53.274Z,12.80
2022-10-12T11:02:33.478Z,12.80
2022-10-12T11:05:08.708Z,12.90
2022-10-12T11:07:52.869Z,12.90
2022-10-12T11:11:07.774Z,12.90
2022-10-12T11:13:54.538Z,13.00
2022-10-12T11:16:38.594Z,13.10
2022-10-12T11:19:21.806Z,13.10
2022-10-12T11:21:56.900Z,13.20
2022-10-12T11:24:33.187Z,13.30
2022-10-12T11:27:10.401Z,13.30
2022-10-12T11:30:09.219Z,13.40
2022-10-12T11:33:19.950Z,13.50
2022-10-12T11:42:23.288Z,13.50
2022-10-12T11:45:04.145Z,13.60
2022-10-12T11:47:47.067Z,13.60
2022-10-12T11:50:46.233Z,13.60
2022-10-12T11:53:27.627Z,13.60
2022-10-12T11:56:02.985Z,13.60
2022-10-12T11:58:55.750Z,13.70
2022-10-12T12:01:40.564Z,13.70
2022-10-12T12:07:47.295Z,13.70
2022-10-12T12:10:55.511Z,13.70
2022-10-12T12:13:44.343Z,13.70
2022-10-12T12:17:05.206Z,13.60
2022-10-12T12:19:54.206Z,13.60
2022-10-12T12:22:49.013Z,13.60
2022-10-12T12:25:47.607Z,13.60
2022-10-12T12:28:40.432Z,13.60
2022-10-12T12:31:15.357Z,13.70
2022-10-12T12:33:50.206Z,13.70
2022-10-12T12:37:02.895Z,13.80
2022-10-12T12:40:30.501Z,13.90
2022-10-12T12:43:37.445Z,13.90
2022-10-12T12:49:28.223Z,14.10
2022-10-12T13:00:25.129Z,14.10
2022-10-12T13:03:40.614Z,14.10
2022-10-12T13:10:14.826Z,14.20
2022-10-12T13:17:31.102Z,14.30
2022-10-12T13:19:39.426Z,14.30
2022-10-12T13:22:15.142Z,14.40
2022-10-12T13:24:49.387Z,14.40
2022-10-12T13:27:30.764Z,14.40
2022-10-12T13:34:05.513Z,14.40
2022-10-12T13:36:49.053Z,14.30
2022-10-12T13:42:56.886Z,14.20
2022-10-12T13:45:30.914Z,14.10
2022-10-12T13:48:09.068Z,14.00
2022-10-12T13:51:27.238Z,14.10
2022-10-12T13:54:34.978Z,14.10
2022-10-12T13:57:15.120Z,14.10
2022-10-12T14:03:01.098Z,14.20
2022-10-12T14:05:31.915Z,14.20
2022-10-12T14:08:21.225Z,14.30
2022-10-12T14:10:50.725Z,14.30
2022-10-12T14:13:26.248Z,14.40
2022-10-12T14:15:55.393Z,14.50
2022-10-12T14:18:53.385Z,14.70
2022-10-12T14:24:19.314Z,15.00
2022-10-12T14:26:54.544Z,15.00
2022-10-12T14:30:00.823Z,15.10
2022-10-12T14:33:12.109Z,15.00
2022-10-12T14:36:19.211Z,14.80
2022-10-12T14:39:42.020Z,14.70
2022-10-12T14:42:21.552Z,14.50
2022-10-12T14:44:52.667Z,14.50
2022-10-12T14:47:27.129Z,14.50
2022-10-12T14:49:58.237Z,14.60
2022-10-12T14:52:31.142Z,14.60
2022-10-12T14:55:01.477Z,14.60
2022-10-12T14:57:32.101Z,14.50
2022-10-12T15:00:00.380Z,14.50
2022-10-12T15:02:30.691Z,14.50
2022-10-12T15:07:46.849Z,14.40
2022-10-12T15:10:18.413Z,14.40
2022-10-12T15:12:48.139Z,14.40
2022-10-12T15:15:31.551Z,14.30
2022-10-12T15:21:14.519Z,14.30
2022-10-12T15:32:32.726Z,14.10
2022-10-12T15:37:59.856Z,14.10
2022-10-12T15:40:43.494Z,14.10
2022-10-12T15:43:14.212Z,14.10
2022-10-12T15:45:43.377Z,14.10
2022-10-12T15:51:10.351Z,14.10
2022-10-12T15:53:41.802Z,14.10
2022-10-12T15:56:14.964Z,14.10
2022-10-12T15:58:42.928Z,14.10
2022-10-12T16:01:13.941Z,14.10
2022-10-12T16:03:48.199Z,14.20
2022-10-12T16:06:16.075Z,14.10
2022-10-12T16:08:49.968Z,14.10
2022-10-12T16:11:19.764Z,14.20
2022-10-12T16:13:58.579Z,14.20
2022-10-12T16:16:34.273Z,14.10
2022-10-12T16:19:05.365Z,14.10
2022-10-12T16:24:29.290Z,14.00
2022-10-12T16:27:23.710Z,14.00
2022-10-12T16:30:03.335Z,14.00
2022-10-12T16:32:43.807Z,14.00
2022-10-12T16:35:35.100Z,14.00
2022-10-12T16:38:10.419Z,13.90
2022-10-12T16:40:53.026Z,13.90
2022-10-12T16:43:26.060Z,13.90
2022-10-12T16:46:00.974Z,13.90
2022-10-12T16:48:36.283Z,13.80
2022-10-12T16:51:21.006Z,13.80
2022-10-12T16:53:54.434Z,13.70
2022-10-12T16:56:29.638Z,13.70
2022-10-12T16:58:59.494Z,13.60
2022-10-12T17:01:30.110Z,13.60
2022-10-12T17:04:03.023Z,13.50
2022-10-12T17:06:31.180Z,13.50
2022-10-12T17:08:59.673Z,13.40
2022-10-12T17:11:30.879Z,13.30
2022-10-12T17:13:58.706Z,13.30
2022-10-12T17:16:52.377Z,13.20
2022-10-12T17:19:29.490Z,13.20
2022-10-12T17:24:46.811Z,13.00
2022-10-12T17:27:16.717Z,13.00
2022-10-12T17:30:02.133Z,12.90
2022-10-12T17:32:41.620Z,12.90
2022-10-12T17:35:22.596Z,12.80
2022-10-12T17:37:55.637Z,12.80
2022-10-12T17:40:32.295Z,12.80
2022-10-12T17:43:01.137Z,12.70
2022-10-12T17:45:37.740Z,12.70
2022-10-12T17:48:17.486Z,12.70
2022-10-12T17:50:47.105Z,12.60
2022-10-12T17:53:22.171Z,12.60
2022-10-12T17:56:14.952Z,12.60
2022-10-12T17:58:45.300Z,12.50
2022-10-12T18:01:19.345Z,12.50
2022-10-12T18:04:04.524Z,12.50
2022-10-12T18:06:35.755Z,12.40
2022-10-12T18:09:09.471Z,12.40
2022-10-12T18:11:46.608Z,12.40
2022-10-12T18:14:26.399Z,12.30
2022-10-12T18:16:59.659Z,12.30
2022-10-12T18:19:32.493Z,12.20
2022-10-12T18:25:01.955Z,12.20
2022-10-12T18:28:11.584Z,12.10
2022-10-12T18:30:46.689Z,12.20
2022-10-12T18:33:15.253Z,12.10
2022-10-12T18:38:38.610Z,12.20
2022-10-12T18:41:08.092Z,12.20
2022-10-12T18:43:36.718Z,12.20
2022-10-12T18:46:07.071Z,12.20
2022-10-12T18:48:35.186Z,12.20
2022-10-12T18:51:07.924Z,12.20
2022-10-12T18:53:45.255Z,12.20
2022-10-12T18:56:19.668Z,12.10
2022-10-12T18:58:47.885Z,12.10
2022-10-12T19:01:18.986Z,12.10
2022-10-12T19:04:05.585Z,12.10
2022-10-12T19:06:38.717Z,12.00
2022-10-12T19:09:21.073Z,12.00
2022-10-12T19:11:50.188Z,11.90
2022-10-12T19:14:18.290Z,11.90
2022-10-12T19:16:48.702Z,11.80
2022-10-12T19:19:21.465Z,11.80
2022-10-12T19:21:49.910Z,11.70
2022-10-12T19:24:19.228Z,11.70
2022-10-12T19:26:47.702Z,11.60
2022-10-12T19:29:18.260Z,11.60
2022-10-12T19:31:48.788Z,11.50
2022-10-12T19:34:21.742Z,11.50
2022-10-12T19:36:49.630Z,11.40
2022-10-12T19:39:21.737Z,11.30
2022-10-12T19:41:50.523Z,11.30
2022-10-12T19:44:19.193Z,11.30
2022-10-12T19:46:50.006Z,11.20
2022-10-12T19:49:22.278Z,11.20
2022-10-12T19:51:50.053Z,11.20
2022-10-12T19:54:19.606Z,11.10
2022-10-12T19:56:47.928Z,11.10
2022-10-12T19:59:17.511Z,11.10
2022-10-12T20:01:47.990Z,11.00
2022-10-12T20:04:16.012Z,11.00
2022-10-12T20:06:45.089Z,11.00
2022-10-12T20:09:14.171Z,11.00
2022-10-12T20:11:43.421Z,11.10
2022-10-12T20:14:14.002Z,11.10
2022-10-12T20:16:41.799Z,11.10
2022-10-12T20:19:09.606Z,11.10
2022-10-12T20:21:38.229Z,11.10
2022-10-12T20:24:08.918Z,11.10
2022-10-12T20:26:36.734Z,11.10
2022-10-12T20:29:06.662Z,11.10
2022-10-12T20:31:35.495Z,11.10
2022-10-12T20:34:07.326Z,11.20
2022-10-12T20:36:37.563Z,11.10
2022-10-12T20:39:07.523Z,11.20
2022-10-12T20:41:35.354Z,11.10
2022-10-12T20:44:06.826Z,11.10
2022-10-12T20:46:36.311Z,11.10
2022-10-12T20:49:05.194Z,11.10
2022-10-12T20:51:35.744Z,11.10
2022-10-12T20:54:05.842Z,11.10
2022-10-12T20:56:42.415Z,11.10
2022-10-12T20:59:12.139Z,11.20
2022-10-12T21:01:49.111Z,11.20
2022-10-12T21:04:16.899Z,11.30
2022-10-12T21:06:44.688Z,11.30
2022-10-12T21:09:15.290Z,11.30
2022-10-12T21:11:43.653Z,11.30
2022-10-12T21:14:14.100Z,11.30
2022-10-12T21:16:42.155Z,11.30
2022-10-12T21:22:04.908Z,11.20
2022-10-12T21:24:33.140Z,11.20
2022-10-12T21:27:04.647Z,11.20
2022-10-12T21:29:33.816Z,11.20
2022-10-12T21:32:05.615Z,11.20
2022-10-12T21:34:33.381Z,11.20
2022-10-12T21:37:01.214Z,11.20
2022-10-12T21:39:30.171Z,11.20
2022-10-12T21:42:00.456Z,11.20
2022-10-12T21:44:29.557Z,11.20
2022-10-12T21:46:58.783Z,11.20
2022-10-12T21:49:28.874Z,11.20
2022-10-12T21:51:56.642Z,11.20
2022-10-12T21:54:26.552Z,11.20
2022-10-12T21:56:54.398Z,11.20
2022-10-12T21:59:22.469Z,11.20
2022-10-12T22:01:52.297Z,11.20
2022-10-12T22:04:23.407Z,11.20
2022-10-12T22:06:51.203Z,11.30
2022-10-12T22:09:21.249Z,11.30
2022-10-12T22:11:49.665Z,11.30
2022-10-12T22:14:19.693Z,11.30
2022-10-12T22:16:47.725Z,11.30
2022-10-12T22:19:19.187Z,11.30
2022-10-12T22:21:56.770Z,11.30
2022-10-12T22:24:24.562Z,11.30
2022-10-12T22:26:55.846Z,11.30
2022-10-12T22:29:23.650Z,11.30
2022-10-12T22:31:51.428Z,11.30
2022-10-12T22:34:19.247Z,11.30
2022-10-12T22:36:50.640Z,11.20
2022-10-12T22:39:18.509Z,11.20
2022-10-12T22:41:46.424Z,11.20
2022-10-12T22:44:14.213Z,11.10
2022-10-12T22:46:41.986Z,11.10
2022-10-12T22:49:09.806Z,11.10
2022-10-12T22:51:42.375Z,11.10
2022-10-12T22:54:14.382Z,11.00
2022-10-12T22:56:43.599Z,11.00
2022-10-12T22:59:15.212Z,11.00
2022-10-12T23:01:47.184Z,11.00
2022-10-12T23:04:17.094Z,11.00
2022-10-12T23:06:47.282Z,11.10
2022-10-12T23:09:21.363Z,11.10
2022-10-12T23:11:52.111Z,11.20
2022-10-12T23:14:21.935Z,11.20
2022-10-12T23:16:49.998Z,11.20
2022-10-12T23:19:22.263Z,11.20
2022-10-12T23:21:53.232Z,11.20
2022-10-12T23:24:22.379Z,11.30
2022-10-12T23:26:54.698Z,11.30
2022-10-12T23:29:23.872Z,11.30
2022-10-12T23:31:51.635Z,11.30
2022-10-12T23:34:19.421Z,11.30
2022-10-12T23:36:49.587Z,11.30
2022-10-12T23:39:17.352Z,11.30
2022-10-12T23:41:48.818Z,11.30
2022-10-12T23:44:18.468Z,11.20
2022-10-12T23:46:47.380Z,11.30
2022-10-12T23:49:15.352Z,11.20
2022-10-12T23:51:44.472Z,11.20
2022-10-12T23:54:12.263Z,11.20
2022-10-12T23:56:43.789Z,11.30
2022-10-12T23:59:12.884Z,11.30
